»·PEaware :: N6233G KOXR-KVCV

N6233G :: KOXR-KVCV

FLIGHT INFORMATION

Flight Status: Arrived
Operator: Privately registered:
United States
More flights under this callsign
Pilot: Mark B. (9455)
Aircraft: BEECH AIRCRAFT BONANZA
(BE36)
More flights by this aircraft type
Origin: KOXR Oxnard
United States
Destination: KVCV Socal Logistics
United States
More flights between these airports :: More routes between these airports
Route: +FIM V386 PMD
File this flight plan on PilotEdge
Remarks: ZULU wx
Altitude:
(Current/Filed)
7,000ft
Speed:
(Current/Filed)
185kts
Departed: 16-Apr-20 05:56 PM
Arrived: 16-Apr-20 06:47 PM
Distance/Time
Traveled:
93nm/0:51
Distance/Time
To Go:
Arrived

Flight Plot

Page will automatically refresh every two minutes.


Map Options




Map Legend


Flown Route
Filed Route
Departure Airport
Arrival Airport
Navaid (VOR, NDB)
Fix

Horizontal Profiles

Position Reports

Time Latitude Longitude Heading Altitude Ground
Speed
16-Apr-20 17:06 34.199128 -119.206787 359 36ft 0kts
16-Apr-20 17:07 34.199128 -119.206787 359 36ft 0kts
16-Apr-20 17:08 34.199128 -119.206787 359 36ft 0kts
16-Apr-20 17:09 34.199128 -119.206787 359 36ft 0kts
16-Apr-20 17:10 34.199128 -119.206787 359 36ft 0kts
16-Apr-20 17:11 34.199128 -119.206787 359 36ft 0kts
16-Apr-20 17:12 34.199128 -119.206787 359 36ft 0kts
16-Apr-20 17:13 34.199128 -119.206787 359 36ft 0kts
16-Apr-20 17:14 34.199128 -119.206787 359 36ft 0kts
16-Apr-20 17:15 34.199128 -119.206787 359 36ft 0kts
16-Apr-20 17:16 34.199128 -119.206787 359 36ft 0kts
16-Apr-20 17:17 34.199128 -119.206787 359 36ft 0kts
16-Apr-20 17:18 34.199128 -119.206787 359 36ft 0kts
16-Apr-20 17:19 34.199128 -119.206787 359 36ft 0kts
16-Apr-20 17:20 34.199128 -119.206787 359 36ft 0kts
16-Apr-20 17:21 34.199128 -119.206787 359 36ft 0kts
16-Apr-20 17:22 34.199128 -119.206787 359 36ft 0kts
16-Apr-20 17:23 34.199128 -119.206787 359 36ft 0kts
16-Apr-20 17:24 34.199128 -119.206787 359 36ft 0kts
16-Apr-20 17:25 34.199128 -119.206787 359 36ft 0kts
16-Apr-20 17:26 34.199128 -119.206787 359 36ft 0kts
16-Apr-20 17:27 34.199128 -119.206787 359 36ft 0kts
16-Apr-20 17:28 34.199128 -119.206787 359 36ft 0kts
16-Apr-20 17:29 34.199128 -119.206787 359 36ft 0kts
16-Apr-20 17:30 34.199128 -119.206787 359 36ft 0kts
16-Apr-20 17:31 34.199128 -119.206787 359 36ft 0kts
16-Apr-20 17:32 34.199128 -119.206787 359 36ft 0kts
16-Apr-20 17:33 34.199128 -119.206787 359 36ft 0kts
16-Apr-20 17:34 34.199128 -119.206787 359 36ft 0kts
16-Apr-20 17:35 34.199128 -119.206787 359 36ft 0kts
16-Apr-20 17:36 34.199128 -119.206787 359 36ft 0kts
16-Apr-20 17:37 34.199128 -119.206787 359 36ft 0kts
16-Apr-20 17:38 34.199128 -119.206787 359 36ft 0kts
16-Apr-20 17:39 34.199128 -119.206787 359 36ft 0kts
16-Apr-20 17:40 34.199128 -119.206787 359 36ft 0kts
16-Apr-20 17:41 34.199128 -119.206787 359 36ft 0kts
16-Apr-20 17:42 34.199128 -119.206787 359 36ft 0kts
16-Apr-20 17:43 34.199128 -119.206787 359 36ft 0kts
16-Apr-20 17:44 34.199128 -119.206787 359 36ft 0kts
16-Apr-20 17:45 34.199128 -119.206787 359 36ft 0kts
16-Apr-20 17:46 34.199128 -119.206787 359 36ft 0kts
16-Apr-20 17:47 34.199128 -119.206787 359 36ft 0kts
16-Apr-20 17:48 34.199128 -119.206787 359 36ft 0kts
16-Apr-20 17:49 34.199128 -119.206787 359 36ft 0kts
16-Apr-20 17:50 34.199128 -119.206787 359 36ft 0kts
16-Apr-20 17:51 34.199200 -119.206790 358 36ft 2kts
16-Apr-20 17:52 34.199658 -119.202705 90 39ft 31kts
16-Apr-20 17:53 34.199779 -119.197572 18 43ft 0kts
16-Apr-20 17:54 34.199779 -119.197572 18 43ft 0kts
16-Apr-20 17:55 34.201241 -119.207140 275 170ft 81kts
16-Apr-20 17:57 34.202191 -119.240750 269 734ft 131kts
16-Apr-20 17:58 34.202150 -119.277449 270 2048ft 82kts
16-Apr-20 17:59 34.202678 -119.310817 269 2737ft 115kts
16-Apr-20 18:00 34.216703 -119.339581 357 3886ft 104kts
16-Apr-20 18:01 34.236929 -119.314682 61 4717ft 122kts
16-Apr-20 18:02 34.251512 -119.283580 59 5992ft 92kts
16-Apr-20 18:03 34.264012 -119.248931 75 6697ft 118kts
16-Apr-20 18:04 34.274837 -119.205590 71 6996ft 158kts
16-Apr-20 18:05 34.289910 -119.152377 71 6988ft 174kts
16-Apr-20 18:06 34.305885 -119.095934 71 6986ft 180kts
16-Apr-20 18:07 34.322179 -119.038397 70 6985ft 181kts
16-Apr-20 18:08 34.338431 -118.980454 75 6983ft 182kts
16-Apr-20 18:09 34.346665 -118.920598 73 6984ft 182kts
16-Apr-20 18:10 34.361628 -118.865443 66 7013ft 181kts
16-Apr-20 18:11 34.380853 -118.808854 67 7013ft 182kts
16-Apr-20 18:12 34.400000 -118.752350 67 7013ft 182kts
16-Apr-20 18:13 34.419265 -118.695580 68 7013ft 182kts
16-Apr-20 18:13 34.435180 -118.648353 68 7012ft 180kts
16-Apr-20 18:15 34.456964 -118.582640 68 7013ft 180kts
16-Apr-20 18:16 34.475754 -118.526708 68 7012ft 178kts
16-Apr-20 18:16 34.491059 -118.479806 67 7013ft 180kts
16-Apr-20 18:18 34.513505 -118.414185 67 7013ft 180kts
16-Apr-20 18:19 34.532493 -118.357827 67 7013ft 180kts
16-Apr-20 18:19 34.547980 -118.310864 68 7040ft 180kts
16-Apr-20 18:20 34.566773 -118.255072 67 7040ft 180kts
16-Apr-20 18:22 34.587501 -118.191900 69 7040ft 180kts
16-Apr-20 18:22 34.603205 -118.144866 67 7040ft 180kts
16-Apr-20 18:23 34.621975 -118.088367 68 7040ft 180kts
16-Apr-20 18:24 34.628402 -118.029343 93 7040ft 180kts
16-Apr-20 18:25 34.626138 -117.968482 92 7040ft 180kts
16-Apr-20 18:26 34.623368 -117.907636 92 7040ft 180kts
16-Apr-20 18:27 34.640497 -117.851979 62 7040ft 180kts
16-Apr-20 18:28 34.664198 -117.798122 62 7040ft 180kts
16-Apr-20 18:29 34.687870 -117.744364 62 7040ft 180kts
16-Apr-20 18:30 34.711522 -117.690648 62 7040ft 180kts
16-Apr-20 18:31 34.735733 -117.637002 61 7040ft 180kts
16-Apr-20 18:32 34.760138 -117.583829 61 7040ft 180kts
16-Apr-20 18:33 34.788589 -117.533404 50 6926ft 186kts
16-Apr-20 18:34 34.822830 -117.483928 49 6026ft 180kts
16-Apr-20 18:35 34.851287 -117.443905 48 6082ft 117kts
16-Apr-20 18:36 34.860357 -117.416545 139 6077ft 80kts
16-Apr-20 18:37 34.839038 -117.401923 157 6252ft 99kts
16-Apr-20 18:38 34.807914 -117.390056 176 5819ft 128kts
16-Apr-20 18:39 34.773355 -117.388192 177 4887ft 135kts
16-Apr-20 18:40 34.737987 -117.387249 181 4326ft 116kts
16-Apr-20 18:41 34.709080 -117.386825 178 4467ft 90kts
16-Apr-20 18:42 34.680803 -117.385775 180 4059ft 112kts
16-Apr-20 18:43 34.651817 -117.386270 184 3342ft 91kts
16-Apr-20 18:44 34.629718 -117.386383 173 2938ft 91kts
16-Apr-20 18:45 34.613047 -117.386630 181 2822ft 45kts
16-Apr-20 18:46 34.610528 -117.384961 95 2827ft 0kts

Navigation Log

Ident Type
Flight plan parsing failed, navigation log unavailable